sensor_id;sensor_type;location;lat;lon;timestamp;P1;durP1;ratioP1;P2;durP2;ratioP2
50781;SDS011;36749;37.428;-121.972;2023-08-20T00:01:09;6.18;;;3.40;;
50781;SDS011;36749;37.428;-121.972;2023-08-20T00:03:40;7.25;;;3.17;;
50781;SDS011;36749;37.428;-121.972;2023-08-20T00:06:07;5.25;;;3.20;;
50781;SDS011;36749;37.428;-121.972;2023-08-20T00:08:34;7.22;;;3.20;;
50781;SDS011;36749;37.428;-121.972;2023-08-20T00:11:01;9.43;;;3.67;;
50781;SDS011;36749;37.428;-121.972;2023-08-20T00:13:28;6.68;;;3.80;;
50781;SDS011;36749;37.428;-121.972;2023-08-20T00:15:54;8.40;;;3.75;;
50781;SDS011;36749;37.428;-121.972;2023-08-20T00:18:21;10.02;;;3.85;;
50781;SDS011;36749;37.428;-121.972;2023-08-20T00:20:47;6.07;;;3.22;;
50781;SDS011;36749;37.428;-121.972;2023-08-20T00:23:14;8.07;;;3.78;;
50781;SDS011;36749;37.428;-121.972;2023-08-20T00:25:40;7.32;;;4.00;;
50781;SDS011;36749;37.428;-121.972;2023-08-20T00:28:07;10.88;;;3.83;;
50781;SDS011;36749;37.428;-121.972;2023-08-20T00:30:33;18.00;;;4.07;;
50781;SDS011;36749;37.428;-121.972;2023-08-20T00:32:59;8.80;;;3.97;;
50781;SDS011;36749;37.428;-121.972;2023-08-20T00:35:25;9.75;;;3.97;;
50781;SDS011;36749;37.428;-121.972;2023-08-20T00:37:51;10.95;;;3.90;;
50781;SDS011;36749;37.428;-121.972;2023-08-20T00:40:17;10.10;;;4.03;;
50781;SDS011;36749;37.428;-121.972;2023-08-20T00:42:44;12.07;;;4.22;;
50781;SDS011;36749;37.428;-121.972;2023-08-20T00:45:10;13.00;;;4.97;;
50781;SDS011;36749;37.428;-121.972;2023-08-20T00:47:37;11.85;;;4.72;;
50781;SDS011;36749;37.428;-121.972;2023-08-20T00:50:04;9.95;;;4.55;;
50781;SDS011;36749;37.428;-121.972;2023-08-20T00:52:34;10.02;;;3.92;;
50781;SDS011;36749;37.428;-121.972;2023-08-20T00:55:03;11.23;;;4.65;;
50781;SDS011;36749;37.428;-121.972;2023-08-20T00:57:34;15.75;;;4.72;;
50781;SDS011;36749;37.428;-121.972;2023-08-20T01:00:00;12.73;;;4.22;;
50781;SDS011;36749;37.428;-121.972;2023-08-20T01:02:32;11.05;;;4.22;;
50781;SDS011;36749;37.428;-121.972;2023-08-20T01:04:59;11.93;;;4.40;;
50781;SDS011;36749;37.428;-121.972;2023-08-20T01:10:13;12.48;;;4.00;;
50781;SDS011;36749;37.428;-121.972;2023-08-20T01:12:49;11.82;;;4.97;;
50781;SDS011;36749;37.428;-121.972;2023-08-20T01:15:15;11.85;;;4.72;;
50781;SDS011;36749;37.428;-121.972;2023-08-20T01:17:45;13.48;;;4.97;;
50781;SDS011;36749;37.428;-121.972;2023-08-20T01:20:14;8.10;;;4.00;;
50781;SDS011;36749;37.428;-121.972;2023-08-20T01:25:26;12.77;;;5.38;;
50781;SDS011;36749;37.428;-121.972;2023-08-20T01:30:23;12.15;;;4.75;;
50781;SDS011;36749;37.428;-121.972;2023-08-20T01:32:50;13.30;;;5.00;;
50781;SDS011;36749;37.428;-121.972;2023-08-20T01:35:16;10.95;;;4.90;;
50781;SDS011;36749;37.428;-121.972;2023-08-20T01:37:43;9.85;;;4.40;;
50781;SDS011;36749;37.428;-121.972;2023-08-20T01:40:10;11.70;;;5.57;;
50781;SDS011;36749;37.428;-121.972;2023-08-20T01:42:36;11.15;;;4.45;;
50781;SDS011;36749;37.428;-121.972;2023-08-20T01:45:03;10.10;;;4.30;;
50781;SDS011;36749;37.428;-121.972;2023-08-20T01:47:31;14.02;;;5.00;;
50781;SDS011;36749;37.428;-121.972;2023-08-20T01:50:00;14.32;;;5.22;;
50781;SDS011;36749;37.428;-121.972;2023-08-20T01:52:26;14.00;;;5.25;;
50781;SDS011;36749;37.428;-121.972;2023-08-20T01:54:54;8.93;;;4.68;;
50781;SDS011;36749;37.428;-121.972;2023-08-20T01:57:21;12.82;;;4.50;;
50781;SDS011;36749;37.428;-121.972;2023-08-20T02:00:07;13.52;;;6.03;;
50781;SDS011;36749;37.428;-121.972;2023-08-20T02:02:34;12.93;;;5.50;;
50781;SDS011;36749;37.428;-121.972;2023-08-20T02:05:00;10.98;;;4.78;;
50781;SDS011;36749;37.428;-121.972;2023-08-20T02:07:28;13.63;;;4.93;;
50781;SDS011;36749;37.428;-121.972;2023-08-20T02:09:54;13.52;;;5.32;;
50781;SDS011;36749;37.428;-121.972;2023-08-20T02:12:20;10.50;;;5.10;;
50781;SDS011;36749;37.428;-121.972;2023-08-20T02:14:47;12.80;;;6.07;;
50781;SDS011;36749;37.428;-121.972;2023-08-20T02:17:13;10.10;;;5.15;;
50781;SDS011;36749;37.428;-121.972;2023-08-20T02:19:39;16.40;;;5.03;;
50781;SDS011;36749;37.428;-121.972;2023-08-20T02:22:06;17.00;;;5.45;;
50781;SDS011;36749;37.428;-121.972;2023-08-20T02:24:32;11.70;;;4.88;;
50781;SDS011;36749;37.428;-121.972;2023-08-20T02:26:58;12.23;;;5.15;;
50781;SDS011;36749;37.428;-121.972;2023-08-20T02:29:24;14.48;;;5.80;;
50781;SDS011;36749;37.428;-121.972;2023-08-20T02:31:50;15.38;;;5.28;;
50781;SDS011;36749;37.428;-121.972;2023-08-20T02:34:16;15.95;;;5.43;;
50781;SDS011;36749;37.428;-121.972;2023-08-20T02:36:43;14.30;;;5.88;;
50781;SDS011;36749;37.428;-121.972;2023-08-20T02:39:09;13.73;;;5.65;;
50781;SDS011;36749;37.428;-121.972;2023-08-20T02:41:35;13.45;;;6.90;;
50781;SDS011;36749;37.428;-121.972;2023-08-20T02:44:02;12.20;;;5.95;;
50781;SDS011;36749;37.428;-121.972;2023-08-20T02:46:29;16.42;;;6.10;;
50781;SDS011;36749;37.428;-121.972;2023-08-20T02:48:55;16.67;;;5.70;;
50781;SDS011;36749;37.428;-121.972;2023-08-20T02:51:21;11.30;;;5.72;;
50781;SDS011;36749;37.428;-121.972;2023-08-20T02:53:48;13.13;;;6.10;;
50781;SDS011;36749;37.428;-121.972;2023-08-20T02:56:14;75.90;;;10.95;;
50781;SDS011;36749;37.428;-121.972;2023-08-20T02:58:40;18.83;;;5.93;;
50781;SDS011;36749;37.428;-121.972;2023-08-20T03:01:07;14.93;;;6.55;;
50781;SDS011;36749;37.428;-121.972;2023-08-20T03:03:44;12.77;;;5.85;;
50781;SDS011;36749;37.428;-121.972;2023-08-20T03:06:10;17.92;;;6.25;;
50781;SDS011;36749;37.428;-121.972;2023-08-20T03:08:36;16.45;;;5.97;;
50781;SDS011;36749;37.428;-121.972;2023-08-20T03:11:03;14.52;;;6.13;;
50781;SDS011;36749;37.428;-121.972;2023-08-20T03:13:29;14.82;;;6.38;;
50781;SDS011;36749;37.428;-121.972;2023-08-20T03:15:55;13.73;;;6.88;;
50781;SDS011;36749;37.428;-121.972;2023-08-20T03:18:21;24.77;;;7.93;;
50781;SDS011;36749;37.428;-121.972;2023-08-20T03:20:48;17.88;;;7.00;;
50781;SDS011;36749;37.428;-121.972;2023-08-20T03:23:14;16.38;;;6.43;;
50781;SDS011;36749;37.428;-121.972;2023-08-20T03:25:40;15.55;;;6.47;;
50781;SDS011;36749;37.428;-121.972;2023-08-20T03:28:06;18.02;;;7.03;;
50781;SDS011;36749;37.428;-121.972;2023-08-20T03:30:32;19.05;;;7.32;;
50781;SDS011;36749;37.428;-121.972;2023-08-20T03:32:59;14.80;;;5.55;;
50781;SDS011;36749;37.428;-121.972;2023-08-20T03:35:25;14.38;;;5.85;;
50781;SDS011;36749;37.428;-121.972;2023-08-20T03:37:51;14.77;;;6.57;;
50781;SDS011;36749;37.428;-121.972;2023-08-20T03:40:18;15.00;;;6.90;;
50781;SDS011;36749;37.428;-121.972;2023-08-20T03:42:44;13.85;;;5.90;;
50781;SDS011;36749;37.428;-121.972;2023-08-20T03:45:10;15.80;;;6.53;;
50781;SDS011;36749;37.428;-121.972;2023-08-20T03:47:36;17.75;;;6.53;;
50781;SDS011;36749;37.428;-121.972;2023-08-20T03:50:03;16.50;;;6.57;;
50781;SDS011;36749;37.428;-121.972;2023-08-20T03:52:29;18.95;;;7.13;;
50781;SDS011;36749;37.428;-121.972;2023-08-20T03:57:40;17.15;;;7.88;;
50781;SDS011;36749;37.428;-121.972;2023-08-20T04:00:07;13.82;;;6.53;;
50781;SDS011;36749;37.428;-121.972;2023-08-20T04:02:34;16.45;;;7.10;;
50781;SDS011;36749;37.428;-121.972;2023-08-20T04:05:01;16.25;;;7.10;;
50781;SDS011;36749;37.428;-121.972;2023-08-20T04:07:28;17.77;;;5.90;;
50781;SDS011;36749;37.428;-121.972;2023-08-20T04:09:55;18.75;;;7.65;;
50781;SDS011;36749;37.428;-121.972;2023-08-20T04:12:22;16.02;;;6.68;;
50781;SDS011;36749;37.428;-121.972;2023-08-20T04:14:48;13.38;;;6.00;;
50781;SDS011;36749;37.428;-121.972;2023-08-20T04:17:14;16.42;;;6.18;;
50781;SDS011;36749;37.428;-121.972;2023-08-20T04:19:41;12.70;;;5.68;;
50781;SDS011;36749;37.428;-121.972;2023-08-20T04:22:07;11.05;;;5.60;;
50781;SDS011;36749;37.428;-121.972;2023-08-20T04:24:34;19.65;;;6.55;;
50781;SDS011;36749;37.428;-121.972;2023-08-20T04:27:01;17.75;;;5.93;;
50781;SDS011;36749;37.428;-121.972;2023-08-20T04:29:29;14.70;;;6.45;;
50781;SDS011;36749;37.428;-121.972;2023-08-20T04:31:55;12.68;;;5.70;;
50781;SDS011;36749;37.428;-121.972;2023-08-20T04:34:22;11.60;;;5.82;;
50781;SDS011;36749;37.428;-121.972;2023-08-20T04:36:48;16.77;;;5.57;;
50781;SDS011;36749;37.428;-121.972;2023-08-20T04:39:15;20.20;;;6.55;;
50781;SDS011;36749;37.428;-121.972;2023-08-20T04:41:41;18.13;;;7.15;;
50781;SDS011;36749;37.428;-121.972;2023-08-20T04:44:07;16.42;;;7.20;;
50781;SDS011;36749;37.428;-121.972;2023-08-20T04:46:33;16.98;;;7.30;;
50781;SDS011;36749;37.428;-121.972;2023-08-20T04:49:00;14.40;;;6.70;;
50781;SDS011;36749;37.428;-121.972;2023-08-20T04:51:26;16.55;;;7.35;;
50781;SDS011;36749;37.428;-121.972;2023-08-20T04:53:52;14.50;;;7.35;;
50781;SDS011;36749;37.428;-121.972;2023-08-20T04:56:18;17.05;;;7.47;;
50781;SDS011;36749;37.428;-121.972;2023-08-20T04:58:44;14.43;;;6.68;;
50781;SDS011;36749;37.428;-121.972;2023-08-20T05:01:11;21.55;;;7.45;;
50781;SDS011;36749;37.428;-121.972;2023-08-20T05:03:37;19.08;;;7.60;;
50781;SDS011;36749;37.428;-121.972;2023-08-20T05:06:03;18.75;;;7.90;;
50781;SDS011;36749;37.428;-121.972;2023-08-20T05:08:29;17.77;;;6.85;;
50781;SDS011;36749;37.428;-121.972;2023-08-20T05:10:56;12.75;;;6.43;;
50781;SDS011;36749;37.428;-121.972;2023-08-20T05:13:22;13.93;;;6.90;;
50781;SDS011;36749;37.428;-121.972;2023-08-20T05:15:49;18.15;;;7.50;;
50781;SDS011;36749;37.428;-121.972;2023-08-20T05:18:15;17.80;;;7.95;;
50781;SDS011;36749;37.428;-121.972;2023-08-20T05:20:41;20.30;;;8.32;;
50781;SDS011;36749;37.428;-121.972;2023-08-20T05:23:07;16.20;;;7.47;;
50781;SDS011;36749;37.428;-121.972;2023-08-20T05:25:34;16.30;;;6.63;;
50781;SDS011;36749;37.428;-121.972;2023-08-20T05:28:00;17.88;;;7.43;;
50781;SDS011;36749;37.428;-121.972;2023-08-20T05:30:26;17.67;;;7.00;;
50781;SDS011;36749;37.428;-121.972;2023-08-20T05:32:53;16.67;;;7.78;;
50781;SDS011;36749;37.428;-121.972;2023-08-20T05:35:19;22.63;;;7.40;;
50781;SDS011;36749;37.428;-121.972;2023-08-20T05:37:45;17.67;;;7.65;;
50781;SDS011;36749;37.428;-121.972;2023-08-20T05:40:11;20.90;;;7.72;;
50781;SDS011;36749;37.428;-121.972;2023-08-20T05:42:37;20.02;;;7.65;;
50781;SDS011;36749;37.428;-121.972;2023-08-20T05:45:04;18.50;;;8.15;;
50781;SDS011;36749;37.428;-121.972;2023-08-20T05:47:30;17.55;;;8.65;;
50781;SDS011;36749;37.428;-121.972;2023-08-20T05:49:56;16.00;;;7.95;;
50781;SDS011;36749;37.428;-121.972;2023-08-20T05:52:22;20.98;;;8.50;;
50781;SDS011;36749;37.428;-121.972;2023-08-20T05:54:49;15.85;;;8.05;;
50781;SDS011;36749;37.428;-121.972;2023-08-20T05:57:15;16.88;;;7.03;;
50781;SDS011;36749;37.428;-121.972;2023-08-20T05:59:41;17.17;;;7.32;;
50781;SDS011;36749;37.428;-121.972;2023-08-20T06:02:08;14.93;;;7.40;;
50781;SDS011;36749;37.428;-121.972;2023-08-20T06:04:34;18.20;;;7.60;;
50781;SDS011;36749;37.428;-121.972;2023-08-20T06:07:00;17.35;;;7.43;;
50781;SDS011;36749;37.428;-121.972;2023-08-20T06:09:26;16.83;;;8.20;;
50781;SDS011;36749;37.428;-121.972;2023-08-20T06:11:53;16.73;;;7.28;;
50781;SDS011;36749;37.428;-121.972;2023-08-20T06:14:19;18.65;;;8.07;;
50781;SDS011;36749;37.428;-121.972;2023-08-20T06:16:45;17.65;;;7.78;;
50781;SDS011;36749;37.428;-121.972;2023-08-20T06:19:11;19.90;;;7.72;;
50781;SDS011;36749;37.428;-121.972;2023-08-20T06:21:38;19.08;;;7.97;;
50781;SDS011;36749;37.428;-121.972;2023-08-20T06:24:04;18.70;;;8.57;;
50781;SDS011;36749;37.428;-121.972;2023-08-20T06:26:30;19.88;;;8.60;;
50781;SDS011;36749;37.428;-121.972;2023-08-20T06:28:57;20.60;;;8.73;;
50781;SDS011;36749;37.428;-121.972;2023-08-20T06:31:24;17.25;;;8.38;;
50781;SDS011;36749;37.428;-121.972;2023-08-20T06:33:50;20.48;;;8.15;;
50781;SDS011;36749;37.428;-121.972;2023-08-20T06:36:16;19.50;;;7.78;;
50781;SDS011;36749;37.428;-121.972;2023-08-20T06:38:42;15.65;;;7.40;;
50781;SDS011;36749;37.428;-121.972;2023-08-20T06:41:11;16.98;;;7.57;;
50781;SDS011;36749;37.428;-121.972;2023-08-20T06:43:38;16.02;;;7.30;;
50781;SDS011;36749;37.428;-121.972;2023-08-20T06:46:05;15.45;;;7.35;;
50781;SDS011;36749;37.428;-121.972;2023-08-20T06:48:37;19.85;;;7.80;;
50781;SDS011;36749;37.428;-121.972;2023-08-20T06:51:11;24.13;;;8.30;;
50781;SDS011;36749;37.428;-121.972;2023-08-20T06:53:55;15.73;;;7.28;;
50781;SDS011;36749;37.428;-121.972;2023-08-20T06:56:21;19.38;;;7.53;;
50781;SDS011;36749;37.428;-121.972;2023-08-20T06:58:48;15.43;;;7.45;;
50781;SDS011;36749;37.428;-121.972;2023-08-20T07:01:14;16.80;;;7.65;;
50781;SDS011;36749;37.428;-121.972;2023-08-20T07:03:41;14.40;;;7.68;;
50781;SDS011;36749;37.428;-121.972;2023-08-20T07:06:09;18.65;;;7.60;;
50781;SDS011;36749;37.428;-121.972;2023-08-20T07:08:37;17.33;;;7.68;;
50781;SDS011;36749;37.428;-121.972;2023-08-20T07:11:07;19.15;;;7.68;;
50781;SDS011;36749;37.428;-121.972;2023-08-20T07:13:33;15.93;;;7.10;;
50781;SDS011;36749;37.428;-121.972;2023-08-20T07:15:59;17.55;;;7.18;;
50781;SDS011;36749;37.428;-121.972;2023-08-20T07:18:26;17.13;;;7.70;;
50781;SDS011;36749;37.428;-121.972;2023-08-20T07:20:52;18.73;;;8.18;;
50781;SDS011;36749;37.428;-121.972;2023-08-20T07:23:18;21.95;;;8.35;;
50781;SDS011;36749;37.428;-121.972;2023-08-20T07:25:44;17.30;;;7.70;;
50781;SDS011;36749;37.428;-121.972;2023-08-20T07:28:12;17.92;;;8.27;;
50781;SDS011;36749;37.428;-121.972;2023-08-20T07:30:38;23.40;;;9.07;;
50781;SDS011;36749;37.428;-121.972;2023-08-20T07:33:05;23.63;;;9.25;;
50781;SDS011;36749;37.428;-121.972;2023-08-20T07:35:32;20.17;;;9.27;;
50781;SDS011;36749;37.428;-121.972;2023-08-20T07:37:59;23.00;;;8.85;;
50781;SDS011;36749;37.428;-121.972;2023-08-20T07:40:25;19.92;;;8.27;;
50781;SDS011;36749;37.428;-121.972;2023-08-20T07:42:51;17.30;;;8.05;;
50781;SDS011;36749;37.428;-121.972;2023-08-20T07:45:17;23.10;;;9.20;;
50781;SDS011;36749;37.428;-121.972;2023-08-20T07:47:44;16.33;;;9.23;;
50781;SDS011;36749;37.428;-121.972;2023-08-20T07:50:10;19.88;;;9.45;;
50781;SDS011;36749;37.428;-121.972;2023-08-20T07:52:36;19.42;;;10.07;;
50781;SDS011;36749;37.428;-121.972;2023-08-20T07:55:03;24.70;;;10.18;;
50781;SDS011;36749;37.428;-121.972;2023-08-20T07:57:29;20.88;;;9.57;;
50781;SDS011;36749;37.428;-121.972;2023-08-20T07:59:55;23.45;;;10.05;;
50781;SDS011;36749;37.428;-121.972;2023-08-20T08:02:22;19.40;;;9.43;;
50781;SDS011;36749;37.428;-121.972;2023-08-20T08:04:48;20.45;;;9.85;;
50781;SDS011;36749;37.428;-121.972;2023-08-20T08:07:14;17.85;;;10.18;;
50781;SDS011;36749;37.428;-121.972;2023-08-20T08:09:40;23.48;;;9.30;;
50781;SDS011;36749;37.428;-121.972;2023-08-20T08:12:07;22.52;;;9.30;;
50781;SDS011;36749;37.428;-121.972;2023-08-20T08:14:33;22.40;;;8.23;;
50781;SDS011;36749;37.428;-121.972;2023-08-20T08:16:59;19.33;;;8.30;;
50781;SDS011;36749;37.428;-121.972;2023-08-20T08:19:25;21.65;;;8.27;;
50781;SDS011;36749;37.428;-121.972;2023-08-20T08:21:52;20.05;;;8.05;;
50781;SDS011;36749;37.428;-121.972;2023-08-20T08:24:18;20.58;;;9.40;;
50781;SDS011;36749;37.428;-121.972;2023-08-20T08:26:44;19.38;;;9.40;;
50781;SDS011;36749;37.428;-121.972;2023-08-20T08:29:10;21.83;;;9.20;;
50781;SDS011;36749;37.428;-121.972;2023-08-20T08:31:36;18.55;;;8.25;;
50781;SDS011;36749;37.428;-121.972;2023-08-20T08:34:03;20.70;;;9.50;;
50781;SDS011;36749;37.428;-121.972;2023-08-20T08:36:29;19.85;;;8.82;;
50781;SDS011;36749;37.428;-121.972;2023-08-20T08:38:55;21.20;;;9.20;;
50781;SDS011;36749;37.428;-121.972;2023-08-20T08:41:22;18.80;;;9.05;;
50781;SDS011;36749;37.428;-121.972;2023-08-20T08:43:49;21.73;;;9.15;;
50781;SDS011;36749;37.428;-121.972;2023-08-20T08:46:18;19.02;;;9.07;;
50781;SDS011;36749;37.428;-121.972;2023-08-20T08:48:45;22.48;;;9.70;;
50781;SDS011;36749;37.428;-121.972;2023-08-20T08:51:33;22.70;;;8.80;;
50781;SDS011;36749;37.428;-121.972;2023-08-20T08:54:00;24.17;;;9.63;;
50781;SDS011;36749;37.428;-121.972;2023-08-20T08:56:27;21.00;;;9.27;;
50781;SDS011;36749;37.428;-121.972;2023-08-20T08:58:54;18.73;;;8.48;;
50781;SDS011;36749;37.428;-121.972;2023-08-20T09:01:20;23.90;;;9.95;;
50781;SDS011;36749;37.428;-121.972;2023-08-20T09:03:47;23.58;;;8.93;;
50781;SDS011;36749;37.428;-121.972;2023-08-20T09:06:13;22.92;;;9.48;;
50781;SDS011;36749;37.428;-121.972;2023-08-20T09:08:40;20.42;;;9.48;;
50781;SDS011;36749;37.428;-121.972;2023-08-20T09:11:06;26.58;;;9.63;;
50781;SDS011;36749;37.428;-121.972;2023-08-20T09:13:33;25.52;;;10.02;;
50781;SDS011;36749;37.428;-121.972;2023-08-20T09:16:08;22.50;;;9.85;;
50781;SDS011;36749;37.428;-121.972;2023-08-20T09:18:38;23.48;;;9.60;;
50781;SDS011;36749;37.428;-121.972;2023-08-20T09:21:10;25.40;;;9.65;;
50781;SDS011;36749;37.428;-121.972;2023-08-20T09:23:38;21.33;;;10.68;;
50781;SDS011;36749;37.428;-121.972;2023-08-20T09:26:05;23.55;;;11.23;;
50781;SDS011;36749;37.428;-121.972;2023-08-20T09:28:54;25.50;;;10.65;;
50781;SDS011;36749;37.428;-121.972;2023-08-20T09:31:20;25.60;;;10.65;;
50781;SDS011;36749;37.428;-121.972;2023-08-20T09:33:49;27.15;;;9.60;;
50781;SDS011;36749;37.428;-121.972;2023-08-20T09:36:17;23.90;;;10.77;;
50781;SDS011;36749;37.428;-121.972;2023-08-20T09:38:48;25.08;;;11.32;;
50781;SDS011;36749;37.428;-121.972;2023-08-20T09:41:17;27.83;;;11.02;;
50781;SDS011;36749;37.428;-121.972;2023-08-20T09:43:43;23.65;;;10.30;;
50781;SDS011;36749;37.428;-121.972;2023-08-20T09:46:10;24.08;;;10.50;;
50781;SDS011;36749;37.428;-121.972;2023-08-20T09:48:38;29.02;;;10.30;;
50781;SDS011;36749;37.428;-121.972;2023-08-20T09:51:04;26.00;;;9.93;;
50781;SDS011;36749;37.428;-121.972;2023-08-20T09:53:37;27.63;;;9.95;;
50781;SDS011;36749;37.428;-121.972;2023-08-20T09:56:10;30.95;;;10.95;;
50781;SDS011;36749;37.428;-121.972;2023-08-20T09:58:41;22.90;;;9.73;;
50781;SDS011;36749;37.428;-121.972;2023-08-20T10:01:07;22.23;;;9.20;;
50781;SDS011;36749;37.428;-121.972;2023-08-20T10:03:33;23.08;;;9.82;;
50781;SDS011;36749;37.428;-121.972;2023-08-20T10:06:00;23.38;;;10.52;;
50781;SDS011;36749;37.428;-121.972;2023-08-20T10:08:26;25.40;;;10.10;;
50781;SDS011;36749;37.428;-121.972;2023-08-20T10:10:53;23.40;;;9.15;;
50781;SDS011;36749;37.428;-121.972;2023-08-20T10:13:19;21.73;;;10.20;;
50781;SDS011;36749;37.428;-121.972;2023-08-20T10:15:45;21.63;;;9.82;;
50781;SDS011;36749;37.428;-121.972;2023-08-20T10:18:11;23.60;;;8.50;;
50781;SDS011;36749;37.428;-121.972;2023-08-20T10:20:39;23.73;;;10.57;;
50781;SDS011;36749;37.428;-121.972;2023-08-20T10:23:06;26.48;;;10.15;;
50781;SDS011;36749;37.428;-121.972;2023-08-20T10:25:32;26.42;;;9.95;;
50781;SDS011;36749;37.428;-121.972;2023-08-20T10:31:06;19.95;;;8.63;;
50781;SDS011;36749;37.428;-121.972;2023-08-20T10:33:35;24.40;;;9.85;;
50781;SDS011;36749;37.428;-121.972;2023-08-20T10:36:09;24.55;;;9.30;;
50781;SDS011;36749;37.428;-121.972;2023-08-20T10:38:40;17.45;;;8.57;;
50781;SDS011;36749;37.428;-121.972;2023-08-20T10:41:07;22.35;;;9.05;;
50781;SDS011;36749;37.428;-121.972;2023-08-20T10:43:35;21.48;;;10.02;;
50781;SDS011;36749;37.428;-121.972;2023-08-20T10:48:33;27.52;;;10.55;;
50781;SDS011;36749;37.428;-121.972;2023-08-20T10:51:11;23.45;;;9.38;;
50781;SDS011;36749;37.428;-121.972;2023-08-20T11:01:55;24.88;;;10.05;;
50781;SDS011;36749;37.428;-121.972;2023-08-20T11:04:23;24.42;;;9.95;;
50781;SDS011;36749;37.428;-121.972;2023-08-20T11:06:53;17.95;;;9.98;;
50781;SDS011;36749;37.428;-121.972;2023-08-20T11:09:25;26.95;;;10.77;;
50781;SDS011;36749;37.428;-121.972;2023-08-20T11:11:52;28.65;;;10.23;;
50781;SDS011;36749;37.428;-121.972;2023-08-20T11:14:19;26.85;;;11.45;;
50781;SDS011;36749;37.428;-121.972;2023-08-20T11:16:46;25.40;;;10.10;;
50781;SDS011;36749;37.428;-121.972;2023-08-20T11:19:14;24.73;;;9.60;;
50781;SDS011;36749;37.428;-121.972;2023-08-20T11:21:44;24.05;;;9.52;;
50781;SDS011;36749;37.428;-121.972;2023-08-20T11:24:11;24.67;;;9.80;;
50781;SDS011;36749;37.428;-121.972;2023-08-20T11:26:40;24.35;;;9.90;;
50781;SDS011;36749;37.428;-121.972;2023-08-20T11:29:16;25.02;;;9.95;;
50781;SDS011;36749;37.428;-121.972;2023-08-20T11:31:45;20.02;;;9.32;;
50781;SDS011;36749;37.428;-121.972;2023-08-20T11:34:12;23.63;;;9.50;;
50781;SDS011;36749;37.428;-121.972;2023-08-20T11:36:38;26.65;;;9.55;;
50781;SDS011;36749;37.428;-121.972;2023-08-20T11:39:08;24.20;;;10.45;;
50781;SDS011;36749;37.428;-121.972;2023-08-20T11:41:38;25.90;;;10.98;;
50781;SDS011;36749;37.428;-121.972;2023-08-20T11:44:07;27.77;;;11.13;;
50781;SDS011;36749;37.428;-121.972;2023-08-20T11:46:43;25.55;;;10.25;;
50781;SDS011;36749;37.428;-121.972;2023-08-20T11:49:10;21.33;;;9.60;;
50781;SDS011;36749;37.428;-121.972;2023-08-20T11:51:41;25.42;;;10.38;;
50781;SDS011;36749;37.428;-121.972;2023-08-20T11:54:11;29.15;;;10.20;;
50781;SDS011;36749;37.428;-121.972;2023-08-20T11:56:44;23.60;;;11.07;;
50781;SDS011;36749;37.428;-121.972;2023-08-20T11:59:15;25.85;;;12.07;;
50781;SDS011;36749;37.428;-121.972;2023-08-20T12:01:42;25.88;;;11.20;;
50781;SDS011;36749;37.428;-121.972;2023-08-20T12:04:09;27.95;;;11.60;;
50781;SDS011;36749;37.428;-121.972;2023-08-20T12:06:36;29.55;;;11.15;;
50781;SDS011;36749;37.428;-121.972;2023-08-20T12:09:19;27.52;;;11.60;;
50781;SDS011;36749;37.428;-121.972;2023-08-20T12:11:52;26.05;;;10.48;;
50781;SDS011;36749;37.428;-121.972;2023-08-20T12:14:21;28.08;;;11.50;;
50781;SDS011;36749;37.428;-121.972;2023-08-20T12:16:48;31.55;;;11.35;;
50781;SDS011;36749;37.428;-121.972;2023-08-20T12:19:16;25.27;;;10.20;;
50781;SDS011;36749;37.428;-121.972;2023-08-20T12:21:42;25.73;;;11.82;;
50781;SDS011;36749;37.428;-121.972;2023-08-20T12:24:09;23.45;;;11.00;;
50781;SDS011;36749;37.428;-121.972;2023-08-20T12:26:36;31.58;;;12.00;;
50781;SDS011;36749;37.428;-121.972;2023-08-20T12:29:02;28.15;;;13.00;;
50781;SDS011;36749;37.428;-121.972;2023-08-20T12:31:29;34.30;;;12.88;;
50781;SDS011;36749;37.428;-121.972;2023-08-20T12:33:55;28.90;;;12.95;;
50781;SDS011;36749;37.428;-121.972;2023-08-20T12:36:21;25.92;;;12.25;;
50781;SDS011;36749;37.428;-121.972;2023-08-20T12:38:47;25.52;;;11.82;;
50781;SDS011;36749;37.428;-121.972;2023-08-20T12:41:14;27.15;;;11.60;;
50781;SDS011;36749;37.428;-121.972;2023-08-20T12:43:40;22.55;;;12.18;;
50781;SDS011;36749;37.428;-121.972;2023-08-20T12:46:07;28.55;;;11.73;;
50781;SDS011;36749;37.428;-121.972;2023-08-20T12:48:34;24.63;;;11.43;;
50781;SDS011;36749;37.428;-121.972;2023-08-20T12:51:00;29.20;;;12.93;;
50781;SDS011;36749;37.428;-121.972;2023-08-20T12:53:28;39.22;;;11.77;;
50781;SDS011;36749;37.428;-121.972;2023-08-20T12:55:54;31.60;;;12.55;;
50781;SDS011;36749;37.428;-121.972;2023-08-20T12:58:20;31.48;;;12.20;;
50781;SDS011;36749;37.428;-121.972;2023-08-20T13:00:47;24.77;;;12.77;;
50781;SDS011;36749;37.428;-121.972;2023-08-20T13:03:14;28.42;;;11.80;;
50781;SDS011;36749;37.428;-121.972;2023-08-20T13:05:40;26.08;;;11.57;;
50781;SDS011;36749;37.428;-121.972;2023-08-20T13:08:07;29.40;;;10.48;;
50781;SDS011;36749;37.428;-121.972;2023-08-20T13:10:34;40.50;;;12.52;;
50781;SDS011;36749;37.428;-121.972;2023-08-20T13:13:00;28.15;;;10.63;;
50781;SDS011;36749;37.428;-121.972;2023-08-20T13:15:27;29.10;;;11.02;;
50781;SDS011;36749;37.428;-121.972;2023-08-20T13:17:54;25.33;;;11.00;;
50781;SDS011;36749;37.428;-121.972;2023-08-20T13:20:20;22.52;;;10.52;;
50781;SDS011;36749;37.428;-121.972;2023-08-20T13:22:48;23.80;;;10.73;;
50781;SDS011;36749;37.428;-121.972;2023-08-20T13:25:15;22.98;;;10.07;;
50781;SDS011;36749;37.428;-121.972;2023-08-20T13:27:42;25.58;;;11.32;;
50781;SDS011;36749;37.428;-121.972;2023-08-20T13:30:08;20.52;;;10.25;;
50781;SDS011;36749;37.428;-121.972;2023-08-20T13:32:36;26.08;;;11.45;;
50781;SDS011;36749;37.428;-121.972;2023-08-20T13:35:02;22.95;;;10.77;;
50781;SDS011;36749;37.428;-121.972;2023-08-20T13:37:31;24.48;;;10.50;;
50781;SDS011;36749;37.428;-121.972;2023-08-20T13:39:58;26.65;;;11.45;;
50781;SDS011;36749;37.428;-121.972;2023-08-20T13:42:25;23.60;;;10.38;;
50781;SDS011;36749;37.428;-121.972;2023-08-20T13:44:51;20.63;;;10.50;;
50781;SDS011;36749;37.428;-121.972;2023-08-20T13:47:17;22.05;;;10.60;;
50781;SDS011;36749;37.428;-121.972;2023-08-20T13:49:43;22.90;;;10.15;;
50781;SDS011;36749;37.428;-121.972;2023-08-20T13:52:10;22.90;;;9.38;;
50781;SDS011;36749;37.428;-121.972;2023-08-20T13:54:36;26.92;;;10.48;;
50781;SDS011;36749;37.428;-121.972;2023-08-20T13:57:03;22.42;;;10.18;;
50781;SDS011;36749;37.428;-121.972;2023-08-20T13:59:30;21.50;;;10.45;;
50781;SDS011;36749;37.428;-121.972;2023-08-20T14:01:56;24.88;;;10.65;;
50781;SDS011;36749;37.428;-121.972;2023-08-20T14:04:24;22.15;;;10.85;;
50781;SDS011;36749;37.428;-121.972;2023-08-20T14:06:50;23.80;;;10.90;;
50781;SDS011;36749;37.428;-121.972;2023-08-20T14:09:16;26.00;;;11.30;;
50781;SDS011;36749;37.428;-121.972;2023-08-20T14:11:44;27.00;;;11.35;;
50781;SDS011;36749;37.428;-121.972;2023-08-20T14:14:10;23.80;;;10.27;;
50781;SDS011;36749;37.428;-121.972;2023-08-20T14:16:37;25.55;;;10.23;;
50781;SDS011;36749;37.428;-121.972;2023-08-20T14:19:03;22.33;;;10.25;;